sensor_id;sensor_type;location;lat;lon;timestamp;pressure;altitude;pressure_sealevel;temperature
17142;BMP180;32805;53.556;9.944;2022-09-19T00:01:35;100764.00;;;9.60
17142;BMP180;32805;53.556;9.944;2022-09-19T00:04:05;100765.00;;;9.50
17142;BMP180;32805;53.556;9.944;2022-09-19T00:06:36;100762.00;;;9.50
17142;BMP180;32805;53.556;9.944;2022-09-19T00:09:06;100767.00;;;9.50
17142;BMP180;32805;53.556;9.944;2022-09-19T00:11:37;100770.00;;;9.50
17142;BMP180;32805;53.556;9.944;2022-09-19T00:14:05;100760.00;;;9.50
17142;BMP180;32805;53.556;9.944;2022-09-19T00:16:35;100769.00;;;9.50
17142;BMP180;32805;53.556;9.944;2022-09-19T00:19:06;100770.00;;;9.50
17142;BMP180;32805;53.556;9.944;2022-09-19T00:21:37;100777.00;;;9.50
17142;BMP180;32805;53.556;9.944;2022-09-19T00:24:06;100787.00;;;9.50
17142;BMP180;32805;53.556;9.944;2022-09-19T00:26:53;100767.00;;;9.60
17142;BMP180;32805;53.556;9.944;2022-09-19T00:29:23;100776.00;;;9.60
17142;BMP180;32805;53.556;9.944;2022-09-19T00:31:51;100784.00;;;9.50
17142;BMP180;32805;53.556;9.944;2022-09-19T00:34:19;100784.00;;;9.50
17142;BMP180;32805;53.556;9.944;2022-09-19T00:36:47;100785.00;;;9.50
17142;BMP180;32805;53.556;9.944;2022-09-19T00:39:17;100774.00;;;9.50
17142;BMP180;32805;53.556;9.944;2022-09-19T00:41:47;100788.00;;;9.50
17142;BMP180;32805;53.556;9.944;2022-09-19T00:47:23;100794.00;;;9.50
17142;BMP180;32805;53.556;9.944;2022-09-19T00:49:54;100794.00;;;9.50
17142;BMP180;32805;53.556;9.944;2022-09-19T00:52:30;100788.00;;;9.50
17142;BMP180;32805;53.556;9.944;2022-09-19T00:54:59;100797.00;;;9.50
17142;BMP180;32805;53.556;9.944;2022-09-19T00:57:36;100807.00;;;9.50
17142;BMP180;32805;53.556;9.944;2022-09-19T01:00:07;100807.00;;;9.40
17142;BMP180;32805;53.556;9.944;2022-09-19T01:02:36;100810.00;;;9.40
17142;BMP180;32805;53.556;9.944;2022-09-19T01:05:04;100797.00;;;9.40
17142;BMP180;32805;53.556;9.944;2022-09-19T01:07:44;100800.00;;;9.50
17142;BMP180;32805;53.556;9.944;2022-09-19T01:10:25;100821.00;;;9.50
17142;BMP180;32805;53.556;9.944;2022-09-19T01:13:02;100811.00;;;9.50
17142;BMP180;32805;53.556;9.944;2022-09-19T01:15:40;100804.00;;;9.50
17142;BMP180;32805;53.556;9.944;2022-09-19T01:18:14;100809.00;;;9.40
17142;BMP180;32805;53.556;9.944;2022-09-19T01:21:06;100816.00;;;9.40
17142;BMP180;32805;53.556;9.944;2022-09-19T01:24:17;100812.00;;;9.40
17142;BMP180;32805;53.556;9.944;2022-09-19T01:27:03;100820.00;;;9.40
17142;BMP180;32805;53.556;9.944;2022-09-19T01:29:41;100818.00;;;9.30
17142;BMP180;32805;53.556;9.944;2022-09-19T01:32:13;100833.00;;;9.30
17142;BMP180;32805;53.556;9.944;2022-09-19T01:34:46;100834.00;;;9.40
17142;BMP180;32805;53.556;9.944;2022-09-19T01:37:19;100843.00;;;9.30
17142;BMP180;32805;53.556;9.944;2022-09-19T01:39:50;100845.00;;;9.30
17142;BMP180;32805;53.556;9.944;2022-09-19T01:42:20;100855.00;;;9.30
17142;BMP180;32805;53.556;9.944;2022-09-19T01:44:54;100848.00;;;9.30
17142;BMP180;32805;53.556;9.944;2022-09-19T01:47:26;100850.00;;;9.30
17142;BMP180;32805;53.556;9.944;2022-09-19T01:49:59;100857.00;;;9.30
17142;BMP180;32805;53.556;9.944;2022-09-19T01:52:45;100854.00;;;9.30
17142;BMP180;32805;53.556;9.944;2022-09-19T01:55:29;100852.00;;;9.20
17142;BMP180;32805;53.556;9.944;2022-09-19T01:58:03;100854.00;;;9.20
17142;BMP180;32805;53.556;9.944;2022-09-19T02:00:35;100846.00;;;9.30
17142;BMP180;32805;53.556;9.944;2022-09-19T02:03:12;100855.00;;;9.30
17142;BMP180;32805;53.556;9.944;2022-09-19T02:05:54;100857.00;;;9.30
17142;BMP180;32805;53.556;9.944;2022-09-19T02:08:25;100850.00;;;9.20
17142;BMP180;32805;53.556;9.944;2022-09-19T02:10:59;100869.00;;;9.20
17142;BMP180;32805;53.556;9.944;2022-09-19T02:13:33;100867.00;;;9.20
17142;BMP180;32805;53.556;9.944;2022-09-19T02:16:12;100874.00;;;9.20
17142;BMP180;32805;53.556;9.944;2022-09-19T02:18:43;100870.00;;;9.20
17142;BMP180;32805;53.556;9.944;2022-09-19T02:21:16;100873.00;;;9.20
17142;BMP180;32805;53.556;9.944;2022-09-19T02:23:50;100872.00;;;9.30
17142;BMP180;32805;53.556;9.944;2022-09-19T02:26:21;100875.00;;;9.30
17142;BMP180;32805;53.556;9.944;2022-09-19T02:28:54;100881.00;;;9.30
17142;BMP180;32805;53.556;9.944;2022-09-19T02:31:26;100892.00;;;9.30
17142;BMP180;32805;53.556;9.944;2022-09-19T02:33:57;100877.00;;;9.30
17142;BMP180;32805;53.556;9.944;2022-09-19T02:36:29;100881.00;;;9.30
17142;BMP180;32805;53.556;9.944;2022-09-19T02:39:02;100892.00;;;9.30
17142;BMP180;32805;53.556;9.944;2022-09-19T02:42:01;100896.00;;;9.30
17142;BMP180;32805;53.556;9.944;2022-09-19T02:44:32;100895.00;;;9.20
17142;BMP180;32805;53.556;9.944;2022-09-19T02:47:09;100884.00;;;9.20
17142;BMP180;32805;53.556;9.944;2022-09-19T02:49:42;100904.00;;;9.20
17142;BMP180;32805;53.556;9.944;2022-09-19T02:52:16;100904.00;;;9.20
17142;BMP180;32805;53.556;9.944;2022-09-19T02:54:48;100901.00;;;9.20
17142;BMP180;32805;53.556;9.944;2022-09-19T02:57:20;100899.00;;;9.20
17142;BMP180;32805;53.556;9.944;2022-09-19T02:59:52;100912.00;;;9.30
17142;BMP180;32805;53.556;9.944;2022-09-19T03:02:30;100911.00;;;9.30
17142;BMP180;32805;53.556;9.944;2022-09-19T03:05:04;100920.00;;;9.30
17142;BMP180;32805;53.556;9.944;2022-09-19T03:07:36;100908.00;;;9.20
17142;BMP180;32805;53.556;9.944;2022-09-19T03:10:14;100919.00;;;9.30
17142;BMP180;32805;53.556;9.944;2022-09-19T03:12:57;100925.00;;;9.20
17142;BMP180;32805;53.556;9.944;2022-09-19T03:15:32;100936.00;;;9.30
17142;BMP180;32805;53.556;9.944;2022-09-19T03:18:07;100916.00;;;9.30
17142;BMP180;32805;53.556;9.944;2022-09-19T03:20:39;100938.00;;;9.30
17142;BMP180;32805;53.556;9.944;2022-09-19T03:23:08;100941.00;;;9.30
17142;BMP180;32805;53.556;9.944;2022-09-19T03:25:38;100936.00;;;9.20
17142;BMP180;32805;53.556;9.944;2022-09-19T03:28:06;100938.00;;;9.20
17142;BMP180;32805;53.556;9.944;2022-09-19T03:30:34;100946.00;;;9.20
17142;BMP180;32805;53.556;9.944;2022-09-19T03:33:02;100944.00;;;9.30
17142;BMP180;32805;53.556;9.944;2022-09-19T03:35:31;100942.00;;;9.30
17142;BMP180;32805;53.556;9.944;2022-09-19T03:38:00;100955.00;;;9.20
17142;BMP180;32805;53.556;9.944;2022-09-19T03:40:28;100954.00;;;9.20
17142;BMP180;32805;53.556;9.944;2022-09-19T03:42:57;100952.00;;;9.20
17142;BMP180;32805;53.556;9.944;2022-09-19T03:45:25;100960.00;;;9.20
17142;BMP180;32805;53.556;9.944;2022-09-19T03:47:54;100963.00;;;9.20
17142;BMP180;32805;53.556;9.944;2022-09-19T03:50:22;100966.00;;;9.20
17142;BMP180;32805;53.556;9.944;2022-09-19T03:53:03;100961.00;;;9.10
17142;BMP180;32805;53.556;9.944;2022-09-19T03:55:35;100965.00;;;9.10
17142;BMP180;32805;53.556;9.944;2022-09-19T03:58:08;100972.00;;;9.10
17142;BMP180;32805;53.556;9.944;2022-09-19T04:00:37;100966.00;;;9.10
17142;BMP180;32805;53.556;9.944;2022-09-19T04:03:05;100972.00;;;9.10
17142;BMP180;32805;53.556;9.944;2022-09-19T04:05:34;100975.00;;;9.10
17142;BMP180;32805;53.556;9.944;2022-09-19T04:08:03;100981.00;;;9.10
17142;BMP180;32805;53.556;9.944;2022-09-19T04:10:31;100960.00;;;9.10
17142;BMP180;32805;53.556;9.944;2022-09-19T04:12:59;100969.00;;;9.10
17142;BMP180;32805;53.556;9.944;2022-09-19T04:15:27;100981.00;;;9.10
17142;BMP180;32805;53.556;9.944;2022-09-19T04:17:56;100958.00;;;9.10
17142;BMP180;32805;53.556;9.944;2022-09-19T04:20:24;100985.00;;;9.10
17142;BMP180;32805;53.556;9.944;2022-09-19T04:23:00;100986.00;;;9.10
17142;BMP180;32805;53.556;9.944;2022-09-19T04:25:42;100995.00;;;9.10
17142;BMP180;32805;53.556;9.944;2022-09-19T04:28:20;100999.00;;;9.10
17142;BMP180;32805;53.556;9.944;2022-09-19T04:30:49;100990.00;;;9.10
17142;BMP180;32805;53.556;9.944;2022-09-19T04:33:18;100995.00;;;9.20
17142;BMP180;32805;53.556;9.944;2022-09-19T04:35:48;100998.00;;;9.20
17142;BMP180;32805;53.556;9.944;2022-09-19T04:38:17;101005.00;;;9.30
17142;BMP180;32805;53.556;9.944;2022-09-19T04:40:51;100996.00;;;9.30
17142;BMP180;32805;53.556;9.944;2022-09-19T04:43:27;101003.00;;;9.30
17142;BMP180;32805;53.556;9.944;2022-09-19T04:46:18;100993.00;;;9.50
17142;BMP180;32805;53.556;9.944;2022-09-19T04:48:49;101005.00;;;9.50
17142;BMP180;32805;53.556;9.944;2022-09-19T04:51:25;100998.00;;;9.70
17142;BMP180;32805;53.556;9.944;2022-09-19T04:53:53;101004.00;;;9.70
17142;BMP180;32805;53.556;9.944;2022-09-19T04:56:23;100996.00;;;9.80
17142;BMP180;32805;53.556;9.944;2022-09-19T04:58:53;101011.00;;;9.90
17142;BMP180;32805;53.556;9.944;2022-09-19T05:01:21;101015.00;;;10.00
17142;BMP180;32805;53.556;9.944;2022-09-19T05:03:51;101014.00;;;10.00
17142;BMP180;32805;53.556;9.944;2022-09-19T05:06:19;101017.00;;;10.10
17142;BMP180;32805;53.556;9.944;2022-09-19T05:08:48;101022.00;;;10.10
17142;BMP180;32805;53.556;9.944;2022-09-19T05:11:44;101015.00;;;10.20
17142;BMP180;32805;53.556;9.944;2022-09-19T05:14:13;101021.00;;;10.30
17142;BMP180;32805;53.556;9.944;2022-09-19T05:16:49;101026.00;;;10.40
17142;BMP180;32805;53.556;9.944;2022-09-19T05:19:17;101026.00;;;10.40
17142;BMP180;32805;53.556;9.944;2022-09-19T05:21:50;101028.00;;;10.50
17142;BMP180;32805;53.556;9.944;2022-09-19T05:24:18;101021.00;;;10.50
17142;BMP180;32805;53.556;9.944;2022-09-19T05:26:47;101031.00;;;10.50
17142;BMP180;32805;53.556;9.944;2022-09-19T05:29:16;101030.00;;;10.50
17142;BMP180;32805;53.556;9.944;2022-09-19T05:32:01;101036.00;;;10.50
17142;BMP180;32805;53.556;9.944;2022-09-19T05:34:41;101043.00;;;10.50
17142;BMP180;32805;53.556;9.944;2022-09-19T05:37:28;101038.00;;;10.50
17142;BMP180;32805;53.556;9.944;2022-09-19T05:40:30;101043.00;;;10.60
17142;BMP180;32805;53.556;9.944;2022-09-19T05:43:11;101041.00;;;10.60
17142;BMP180;32805;53.556;9.944;2022-09-19T05:45:40;101047.00;;;10.60
17142;BMP180;32805;53.556;9.944;2022-09-19T05:48:08;101020.00;;;10.60
17142;BMP180;32805;53.556;9.944;2022-09-19T05:50:37;101053.00;;;10.50
17142;BMP180;32805;53.556;9.944;2022-09-19T05:53:06;101053.00;;;10.60
17142;BMP180;32805;53.556;9.944;2022-09-19T05:55:51;101060.00;;;10.50
17142;BMP180;32805;53.556;9.944;2022-09-19T05:58:40;101028.00;;;10.50
17142;BMP180;32805;53.556;9.944;2022-09-19T06:01:10;101060.00;;;10.60
17142;BMP180;32805;53.556;9.944;2022-09-19T06:03:39;101056.00;;;10.50
17142;BMP180;32805;53.556;9.944;2022-09-19T06:06:12;101060.00;;;10.50
17142;BMP180;32805;53.556;9.944;2022-09-19T06:08:41;101065.00;;;10.50
17142;BMP180;32805;53.556;9.944;2022-09-19T06:11:13;101051.00;;;10.50
17142;BMP180;32805;53.556;9.944;2022-09-19T06:13:49;101037.00;;;10.50
17142;BMP180;32805;53.556;9.944;2022-09-19T06:16:35;101064.00;;;10.70
17142;BMP180;32805;53.556;9.944;2022-09-19T06:19:18;101071.00;;;10.70
17142;BMP180;32805;53.556;9.944;2022-09-19T06:22:21;101071.00;;;10.80
17142;BMP180;32805;53.556;9.944;2022-09-19T06:24:59;101074.00;;;10.90
17142;BMP180;32805;53.556;9.944;2022-09-19T06:27:29;101063.00;;;11.00
17142;BMP180;32805;53.556;9.944;2022-09-19T06:30:09;101055.00;;;11.10
17142;BMP180;32805;53.556;9.944;2022-09-19T06:33:08;101073.00;;;11.30
17142;BMP180;32805;53.556;9.944;2022-09-19T06:35:49;101078.00;;;11.40
17142;BMP180;32805;53.556;9.944;2022-09-19T06:38:28;101083.00;;;11.50
17142;BMP180;32805;53.556;9.944;2022-09-19T06:41:11;101086.00;;;11.50
17142;BMP180;32805;53.556;9.944;2022-09-19T06:44:01;101089.00;;;11.60
17142;BMP180;32805;53.556;9.944;2022-09-19T06:46:52;101065.00;;;11.70
17142;BMP180;32805;53.556;9.944;2022-09-19T06:49:48;101077.00;;;11.70
17142;BMP180;32805;53.556;9.944;2022-09-19T06:52:46;101086.00;;;11.80
17142;BMP180;32805;53.556;9.944;2022-09-19T06:55:18;101090.00;;;11.90
17142;BMP180;32805;53.556;9.944;2022-09-19T06:57:59;101085.00;;;12.10
17142;BMP180;32805;53.556;9.944;2022-09-19T07:00:30;101067.00;;;12.20
17142;BMP180;32805;53.556;9.944;2022-09-19T07:03:04;101093.00;;;12.30
17142;BMP180;32805;53.556;9.944;2022-09-19T07:05:35;101090.00;;;12.50
17142;BMP180;32805;53.556;9.944;2022-09-19T07:08:25;101094.00;;;12.70
17142;BMP180;32805;53.556;9.944;2022-09-19T07:10:59;101093.00;;;12.80
17142;BMP180;32805;53.556;9.944;2022-09-19T07:13:28;101100.00;;;12.90
17142;BMP180;32805;53.556;9.944;2022-09-19T07:16:01;101084.00;;;13.00
17142;BMP180;32805;53.556;9.944;2022-09-19T07:18:32;101095.00;;;13.00
17142;BMP180;32805;53.556;9.944;2022-09-19T07:21:21;101100.00;;;13.10
17142;BMP180;32805;53.556;9.944;2022-09-19T07:23:53;101109.00;;;13.20
17142;BMP180;32805;53.556;9.944;2022-09-19T07:26:54;101104.00;;;13.20
17142;BMP180;32805;53.556;9.944;2022-09-19T07:29:22;101110.00;;;13.30
17142;BMP180;32805;53.556;9.944;2022-09-19T07:31:50;101107.00;;;13.40
17142;BMP180;32805;53.556;9.944;2022-09-19T07:34:19;101127.00;;;13.40
17142;BMP180;32805;53.556;9.944;2022-09-19T07:36:53;101123.00;;;13.40
17142;BMP180;32805;53.556;9.944;2022-09-19T07:39:22;101125.00;;;13.30
17142;BMP180;32805;53.556;9.944;2022-09-19T07:42:10;101135.00;;;13.40
17142;BMP180;32805;53.556;9.944;2022-09-19T07:44:59;101134.00;;;13.30
17142;BMP180;32805;53.556;9.944;2022-09-19T07:47:55;101123.00;;;13.20
17142;BMP180;32805;53.556;9.944;2022-09-19T07:50:47;101129.00;;;13.20
17142;BMP180;32805;53.556;9.944;2022-09-19T07:53:27;101137.00;;;13.20
17142;BMP180;32805;53.556;9.944;2022-09-19T07:55:56;101134.00;;;13.30
17142;BMP180;32805;53.556;9.944;2022-09-19T07:58:26;101135.00;;;13.40
17142;BMP180;32805;53.556;9.944;2022-09-19T08:00:57;101139.00;;;13.40
17142;BMP180;32805;53.556;9.944;2022-09-19T08:03:57;101141.00;;;13.60
17142;BMP180;32805;53.556;9.944;2022-09-19T08:06:35;101132.00;;;13.60
17142;BMP180;32805;53.556;9.944;2022-09-19T08:09:05;101133.00;;;13.70
17142;BMP180;32805;53.556;9.944;2022-09-19T08:11:53;101139.00;;;13.80
17142;BMP180;32805;53.556;9.944;2022-09-19T08:14:23;101134.00;;;13.90
17142;BMP180;32805;53.556;9.944;2022-09-19T08:16:52;101146.00;;;14.00
17142;BMP180;32805;53.556;9.944;2022-09-19T08:19:20;101139.00;;;13.90
17142;BMP180;32805;53.556;9.944;2022-09-19T08:21:49;101139.00;;;14.00
17142;BMP180;32805;53.556;9.944;2022-09-19T08:24:17;101140.00;;;14.10
17142;BMP180;32805;53.556;9.944;2022-09-19T08:26:46;101144.00;;;14.30
17142;BMP180;32805;53.556;9.944;2022-09-19T08:29:14;101146.00;;;14.30
17142;BMP180;32805;53.556;9.944;2022-09-19T08:31:51;101136.00;;;14.40
17142;BMP180;32805;53.556;9.944;2022-09-19T08:34:21;101137.00;;;14.60
17142;BMP180;32805;53.556;9.944;2022-09-19T08:36:52;101145.00;;;14.60
17142;BMP180;32805;53.556;9.944;2022-09-19T08:39:25;101147.00;;;14.80
17142;BMP180;32805;53.556;9.944;2022-09-19T08:42:01;101149.00;;;14.90
17142;BMP180;32805;53.556;9.944;2022-09-19T08:44:46;101151.00;;;15.00
17142;BMP180;32805;53.556;9.944;2022-09-19T08:47:17;101151.00;;;15.20
17142;BMP180;32805;53.556;9.944;2022-09-19T08:49:51;101148.00;;;15.30
17142;BMP180;32805;53.556;9.944;2022-09-19T08:52:39;101150.00;;;15.50
17142;BMP180;32805;53.556;9.944;2022-09-19T08:55:23;101160.00;;;15.50
17142;BMP180;32805;53.556;9.944;2022-09-19T08:57:53;101161.00;;;15.50
17142;BMP180;32805;53.556;9.944;2022-09-19T09:00:26;101162.00;;;15.60
17142;BMP180;32805;53.556;9.944;2022-09-19T09:03:02;101164.00;;;15.50
17142;BMP180;32805;53.556;9.944;2022-09-19T09:05:46;101172.00;;;15.40
17142;BMP180;32805;53.556;9.944;2022-09-19T09:08:33;101158.00;;;15.40
17142;BMP180;32805;53.556;9.944;2022-09-19T09:11:29;101161.00;;;15.40
17142;BMP180;32805;53.556;9.944;2022-09-19T09:14:31;101167.00;;;15.40
17142;BMP180;32805;53.556;9.944;2022-09-19T09:17:17;101169.00;;;15.30
17142;BMP180;32805;53.556;9.944;2022-09-19T09:20:07;101169.00;;;15.30
17142;BMP180;32805;53.556;9.944;2022-09-19T09:22:38;101166.00;;;15.30
17142;BMP180;32805;53.556;9.944;2022-09-19T09:25:44;101162.00;;;15.40
17142;BMP180;32805;53.556;9.944;2022-09-19T09:28:18;101165.00;;;15.40
17142;BMP180;32805;53.556;9.944;2022-09-19T09:31:09;101160.00;;;15.40
17142;BMP180;32805;53.556;9.944;2022-09-19T09:33:48;101165.00;;;15.40
17142;BMP180;32805;53.556;9.944;2022-09-19T09:36:18;101159.00;;;15.60
17142;BMP180;32805;53.556;9.944;2022-09-19T09:38:54;101165.00;;;15.70
17142;BMP180;32805;53.556;9.944;2022-09-19T09:41:34;101161.00;;;15.90
17142;BMP180;32805;53.556;9.944;2022-09-19T09:44:26;101158.00;;;15.80
17142;BMP180;32805;53.556;9.944;2022-09-19T09:47:00;101157.00;;;15.90
17142;BMP180;32805;53.556;9.944;2022-09-19T09:49:35;101162.00;;;15.90
17142;BMP180;32805;53.556;9.944;2022-09-19T09:52:13;101157.00;;;15.80
17142;BMP180;32805;53.556;9.944;2022-09-19T09:54:56;101160.00;;;15.80
17142;BMP180;32805;53.556;9.944;2022-09-19T09:57:49;101158.00;;;15.80
17142;BMP180;32805;53.556;9.944;2022-09-19T10:00:22;101155.00;;;16.00
17142;BMP180;32805;53.556;9.944;2022-09-19T10:03:19;101159.00;;;16.10
17142;BMP180;32805;53.556;9.944;2022-09-19T10:06:17;101161.00;;;16.00
17142;BMP180;32805;53.556;9.944;2022-09-19T10:09:00;101136.00;;;15.90
17142;BMP180;32805;53.556;9.944;2022-09-19T10:11:39;101148.00;;;16.00
17142;BMP180;32805;53.556;9.944;2022-09-19T10:14:31;101146.00;;;16.10
17142;BMP180;32805;53.556;9.944;2022-09-19T10:17:30;101147.00;;;16.30
17142;BMP180;32805;53.556;9.944;2022-09-19T10:20:08;101154.00;;;16.40
17142;BMP180;32805;53.556;9.944;2022-09-19T10:22:38;101149.00;;;16.40
17142;BMP180;32805;53.556;9.944;2022-09-19T10:25:08;101143.00;;;16.40
17142;BMP180;32805;53.556;9.944;2022-09-19T10:27:39;101147.00;;;16.50
17142;BMP180;32805;53.556;9.944;2022-09-19T10:30:23;101147.00;;;16.60
17142;BMP180;32805;53.556;9.944;2022-09-19T10:32:53;101130.00;;;16.60
17142;BMP180;32805;53.556;9.944;2022-09-19T10:35:40;101150.00;;;16.60
17142;BMP180;32805;53.556;9.944;2022-09-19T10:38:15;101161.00;;;16.50
17142;BMP180;32805;53.556;9.944;2022-09-19T10:40:53;101145.00;;;16.30
17142;BMP180;32805;53.556;9.944;2022-09-19T10:43:27;101140.00;;;16.40
17142;BMP180;32805;53.556;9.944;2022-09-19T10:46:02;101150.00;;;16.50
17142;BMP180;32805;53.556;9.944;2022-09-19T10:48:39;101145.00;;;16.50
17142;BMP180;32805;53.556;9.944;2022-09-19T10:51:10;101138.00;;;16.70
17142;BMP180;32805;53.556;9.944;2022-09-19T10:53:44;101135.00;;;16.80
17142;BMP180;32805;53.556;9.944;2022-09-19T10:56:18;101131.00;;;16.90
17142;BMP180;32805;53.556;9.944;2022-09-19T10:58:52;101138.00;;;16.70
17142;BMP180;32805;53.556;9.944;2022-09-19T11:01:34;101147.00;;;16.50
17142;BMP180;32805;53.556;9.944;2022-09-19T11:04:03;101147.00;;;16.40
17142;BMP180;32805;53.556;9.944;2022-09-19T11:06:32;101148.00;;;16.40
17142;BMP180;32805;53.556;9.944;2022-09-19T11:09:06;101147.00;;;16.40
17142;BMP180;32805;53.556;9.944;2022-09-19T11:11:49;101142.00;;;16.60
17142;BMP180;32805;53.556;9.944;2022-09-19T11:14:23;101150.00;;;16.80
17142;BMP180;32805;53.556;9.944;2022-09-19T11:20:09;101141.00;;;16.60
17142;BMP180;32805;53.556;9.944;2022-09-19T11:23:10;101141.00;;;16.80
17142;BMP180;32805;53.556;9.944;2022-09-19T11:25:49;101146.00;;;16.90
17142;BMP180;32805;53.556;9.944;2022-09-19T11:28:28;101147.00;;;17.00
17142;BMP180;32805;53.556;9.944;2022-09-19T11:31:08;101142.00;;;17.00
17142;BMP180;32805;53.556;9.944;2022-09-19T11:34:09;101140.00;;;16.90
17142;BMP180;32805;53.556;9.944;2022-09-19T11:37:13;101138.00;;;16.80
17142;BMP180;32805;53.556;9.944;2022-09-19T11:39:56;101132.00;;;16.80
17142;BMP180;32805;53.556;9.944;2022-09-19T11:42:38;101141.00;;;16.80
17142;BMP180;32805;53.556;9.944;2022-09-19T11:45:12;101139.00;;;16.80
17142;BMP180;32805;53.556;9.944;2022-09-19T11:48:02;101142.00;;;16.70
17142;BMP180;32805;53.556;9.944;2022-09-19T11:50:53;101147.00;;;16.70
17142;BMP180;32805;53.556;9.944;2022-09-19T11:53:41;101142.00;;;16.60
17142;BMP180;32805;53.556;9.944;2022-09-19T11:56:35;101147.00;;;16.60
17142;BMP180;32805;53.556;9.944;2022-09-19T11:59:17;101143.00;;;16.60
17142;BMP180;32805;53.556;9.944;2022-09-19T12:01:59;101159.00;;;16.70
17142;BMP180;32805;53.556;9.944;2022-09-19T12:04:40;101158.00;;;16.70
17142;BMP180;32805;53.556;9.944;2022-09-19T12:07:29;101157.00;;;16.70
17142;BMP180;32805;53.556;9.944;2022-09-19T12:10:13;101159.00;;;16.80
17142;BMP180;32805;53.556;9.944;2022-09-19T12:12:45;101159.00;;;16.70
17142;BMP180;32805;53.556;9.944;2022-09-19T12:15:28;101168.00;;;16.70
17142;BMP180;32805;53.556;9.944;2022-09-19T12:18:01;101165.00;;;16.60
17142;BMP180;32805;53.556;9.944;2022-09-19T12:20:37;101160.00;;;15.30
17142;BMP180;32805;53.556;9.944;2022-09-19T12:23:17;101182.00;;;14.50
17142;BMP180;32805;53.556;9.944;2022-09-19T12:26:08;101189.00;;;13.90
17142;BMP180;32805;53.556;9.944;2022-09-19T12:28:40;101190.00;;;13.60
17142;BMP180;32805;53.556;9.944;2022-09-19T12:31:17;101186.00;;;13.30
17142;BMP180;32805;53.556;9.944;2022-09-19T12:33:51;101194.00;;;13.00
17142;BMP180;32805;53.556;9.944;2022-09-19T12:36:25;101215.00;;;12.80
17142;BMP180;32805;53.556;9.944;2022-09-19T12:39:03;101201.00;;;12.70
17142;BMP180;32805;53.556;9.944;2022-09-19T12:41:38;101203.00;;;12.50
17142;BMP180;32805;53.556;9.944;2022-09-19T12:44:13;101212.00;;;12.60
17142;BMP180;32805;53.556;9.944;2022-09-19T12:46:52;101211.00;;;12.80
17142;BMP180;32805;53.556;9.944;2022-09-19T12:49:35;101221.00;;;12.80
17142;BMP180;32805;53.556;9.944;2022-09-19T12:52:12;101198.00;;;12.90
17142;BMP180;32805;53.556;9.944;2022-09-19T12:54:50;101213.00;;;13.10
17142;BMP180;32805;53.556;9.944;2022-09-19T12:57:24;101200.00;;;13.50
17142;BMP180;32805;53.556;9.944;2022-09-19T12:59:53;101199.00;;;13.80
17142;BMP180;32805;53.556;9.944;2022-09-19T13:02:26;101192.00;;;14.00
17142;BMP180;32805;53.556;9.944;2022-09-19T13:04:58;101184.00;;;14.20
17142;BMP180;32805;53.556;9.944;2022-09-19T13:07:31;101173.00;;;14.30
17142;BMP180;32805;53.556;9.944;2022-09-19T13:10:10;101183.00;;;14.40
17142;BMP180;32805;53.556;9.944;2022-09-19T13:12:44;101180.00;;;14.40
17142;BMP180;32805;53.556;9.944;2022-09-19T13:15:21;101195.00;;;14.30
17142;BMP180;32805;53.556;9.944;2022-09-19T13:17:56;101190.00;;;14.40
17142;BMP180;32805;53.556;9.944;2022-09-19T13:20:45;101186.00;;;14.40
17142;BMP180;32805;53.556;9.944;2022-09-19T13:23:35;101182.00;;;14.40
17142;BMP180;32805;53.556;9.944;2022-09-19T13:26:21;101176.00;;;14.10
17142;BMP180;32805;53.556;9.944;2022-09-19T13:28:52;101175.00;;;13.70
17142;BMP180;32805;53.556;9.944;2022-09-19T13:31:23;101189.00;;;13.40
17142;BMP180;32805;53.556;9.944;2022-09-19T13:33:53;101197.00;;;13.20
17142;BMP180;32805;53.556;9.944;2022-09-19T13:36:39;101192.00;;;13.20
17142;BMP180;32805;53.556;9.944;2022-09-19T13:39:43;101197.00;;;13.30
17142;BMP180;32805;53.556;9.944;2022-09-19T13:42:18;101191.00;;;13.30
17142;BMP180;32805;53.556;9.944;2022-09-19T13:44:57;101202.00;;;13.30
17142;BMP180;32805;53.556;9.944;2022-09-19T13:47:29;101210.00;;;13.30
17142;BMP180;32805;53.556;9.944;2022-09-19T13:50:05;101203.00;;;13.30
17142;BMP180;32805;53.556;9.944;2022-09-19T13:52:36;101189.00;;;13.30
17142;BMP180;32805;53.556;9.944;2022-09-19T13:55:17;101203.00;;;13.30
17142;BMP180;32805;53.556;9.944;2022-09-19T13:57:48;101205.00;;;13.50
17142;BMP180;32805;53.556;9.944;2022-09-19T14:00:28;101206.00;;;13.60
17142;BMP180;32805;53.556;9.944;2022-09-19T14:03:00;101203.00;;;13.90
17142;BMP180;32805;53.556;9.944;2022-09-19T14:05:32;101204.00;;;14.20
17142;BMP180;32805;53.556;9.944;2022-09-19T14:08:01;101212.00;;;14.30
17142;BMP180;32805;53.556;9.944;2022-09-19T14:10:51;101209.00;;;14.60
17142;BMP180;32805;53.556;9.944;2022-09-19T14:13:36;101209.00;;;14.80
17142;BMP180;32805;53.556;9.944;2022-09-19T14:16:16;101211.00;;;14.80
17142;BMP180;32805;53.556;9.944;2022-09-19T14:18:57;101204.00;;;14.90
17142;BMP180;32805;53.556;9.944;2022-09-19T14:21:54;101211.00;;;15.10
17142;BMP180;32805;53.556;9.944;2022-09-19T14:24:43;101211.00;;;15.20
17142;BMP180;32805;53.556;9.944;2022-09-19T14:27:36;101212.00;;;15.30
17142;BMP180;32805;53.556;9.944;2022-09-19T14:30:20;101217.00;;;15.40
17142;BMP180;32805;53.556;9.944;2022-09-19T14:32:59;101218.00;;;15.40
17142;BMP180;32805;53.556;9.944;2022-09-19T14:35:42;101199.00;;;15.50
17142;BMP180;32805;53.556;9.944;2022-09-19T14:38:37;101217.00;;;15.50
17142;BMP180;32805;53.556;9.944;2022-09-19T14:41:13;101209.00;;;15.60
17142;BMP180;32805;53.556;9.944;2022-09-19T14:44:18;101209.00;;;15.60
17142;BMP180;32805;53.556;9.944;2022-09-19T14:46:54;101209.00;;;15.70
17142;BMP180;32805;53.556;9.944;2022-09-19T14:49:26;101201.00;;;15.70
17142;BMP180;32805;53.556;9.944;2022-09-19T14:51:58;101212.00;;;15.70
17142;BMP180;32805;53.556;9.944;2022-09-19T14:54:38;101205.00;;;15.70
17142;BMP180;32805;53.556;9.944;2022-09-19T14:57:14;101193.00;;;15.70
17142;BMP180;32805;53.556;9.944;2022-09-19T14:59:42;101204.00;;;15.60
17142;BMP180;32805;53.556;9.944;2022-09-19T15:02:19;101202.00;;;15.60
17142;BMP180;32805;53.556;9.944;2022-09-19T15:04:56;101202.00;;;15.70